Time;durP1;ratioP1;P1;durP2;ratioP2;P2;SDS_P1;SDS_P2;PMS_P1;PMS_P2;Temp;Humidity;BMP_temperature;BMP_pressure;BME280_temperature;BME280_humidity;BME280_pressure;Samples;Min_cycle;Max_cycle;Signal;HPM_P1;HPM_P2
2021/07/29 00:01:25;;;;;;;0.00;0.00;;;22.60;74.10;;;;;;4207173;28;20055;-47
2021/07/29 00:03:47;;;;;;;0.00;0.00;;;22.60;75.00;;;;;;4207834;28;20476;-52
2021/07/29 00:06:25;;;;;;;0.00;0.00;;;22.50;75.00;;;;;;4207213;28;20047;-46
2021/07/29 00:08:48;;;;;;;0.13;0.13;;;22.50;74.10;;;;;;4207667;28;20075;-49
2021/07/29 00:11:11;;;;;;;0.20;0.20;;;22.50;74.10;;;;;;4211282;28;20512;-49
2021/07/29 00:13:33;;;;;;;0.00;0.00;;;22.50;74.00;;;;;;4210748;28;20101;-48
2021/07/29 00:15:55;;;;;;;0.00;0.00;;;22.50;74.10;;;;;;4210902;28;20181;-48
2021/07/29 00:20:57;;;;;;;0.00;0.00;;;22.50;74.00;;;;;;4210828;28;20139;-47
2021/07/29 00:23:19;;;;;;;0.00;0.00;;;22.50;74.00;;;;;;4209049;28;20040;-47
2021/07/29 00:25:43;;;;;;;0.10;0.10;;;22.50;74.00;;;;;;4210920;28;20047;-48
2021/07/29 00:28:05;;;;;;;0.00;0.00;;;22.50;74.00;;;;;;4210875;28;20058;-47
2021/07/29 00:30:28;;;;;;;0.15;0.15;;;22.50;74.00;;;;;;4205319;28;20059;-48
2021/07/29 00:32:52;;;;;;;0.00;0.00;;;22.50;74.00;;;;;;4193833;28;20051;-49
2021/07/29 00:35:16;;;;;;;0.00;0.00;;;22.40;74.80;;;;;;4194061;28;20048;-47
2021/07/29 00:37:38;;;;;;;0.13;0.13;;;22.40;73.90;;;;;;4193114;28;20102;-50
2021/07/29 00:40:00;;;;;;;0.38;0.38;;;22.40;73.90;;;;;;4193812;28;20044;-48
2021/07/29 00:42:23;;;;;;;0.47;0.47;;;22.40;73.90;;;;;;4193661;28;20055;-49
2021/07/29 00:44:45;;;;;;;0.20;0.20;;;22.40;74.60;;;;;;4210222;28;20494;-49
2021/07/29 00:47:07;;;;;;;0.00;0.00;;;22.40;73.80;;;;;;4209052;28;20055;-48
2021/07/29 00:49:29;;;;;;;0.30;0.30;;;22.40;73.80;;;;;;4210445;28;20127;-47
2021/07/29 00:51:52;;;;;;;0.20;0.20;;;22.40;73.70;;;;;;4209827;28;20048;-48
2021/07/29 00:54:14;;;;;;;0.00;0.00;;;22.40;73.70;;;;;;4210375;28;20047;-51
2021/07/29 00:56:37;;;;;;;0.00;0.00;;;22.40;73.70;;;;;;4210367;28;20052;-48
2021/07/29 00:59:00;;;;;;;0.08;0.08;;;22.30;73.60;;;;;;4208363;28;20054;-47
2021/07/29 01:01:23;;;;;;;0.10;0.10;;;22.40;73.70;;;;;;4210180;28;20048;-47
2021/07/29 01:03:45;;;;;;;0.00;0.00;;;22.30;73.60;;;;;;4210169;28;20062;-47
2021/07/29 01:06:07;;;;;;;0.00;0.00;;;22.30;73.60;;;;;;4210071;28;20050;-51
2021/07/29 01:08:29;;;;;;;0.32;0.32;;;22.30;73.50;;;;;;4210018;28;20125;-47
2021/07/29 01:10:51;;;;;;;0.00;0.00;;;22.30;73.60;;;;;;4193542;28;20127;-47
2021/07/29 01:13:13;;;;;;;0.13;0.13;;;22.30;73.40;;;;;;4193404;28;20489;-47
2021/07/29 01:15:37;;;;;;;0.05;0.05;;;22.30;73.40;;;;;;4193240;28;20074;-48
2021/07/29 01:18:01;;;;;;;0.28;0.28;;;22.30;73.40;;;;;;4209690;28;20124;-50
2021/07/29 01:20:26;;;;;;;0.00;0.00;;;22.30;73.40;;;;;;4209648;28;20513;-48
2021/07/29 01:22:47;;;;;;;0.55;0.55;;;22.30;73.40;;;;;;4209060;28;20073;-47
2021/07/29 01:25:10;;;;;;;0.13;0.13;;;22.30;73.40;;;;;;4209988;28;20101;-48
2021/07/29 01:27:33;;;;;;;0.00;0.00;;;22.30;73.40;;;;;;4193064;28;20140;-48
2021/07/29 01:29:55;;;;;;;0.10;0.10;;;22.30;73.40;;;;;;4208381;28;20131;-50
2021/07/29 01:32:17;;;;;;;0.00;0.00;;;22.20;73.60;;;;;;4209885;28;20430;-52
2021/07/29 01:34:39;;;;;;;0.00;0.00;;;22.20;73.60;;;;;;4209648;28;20068;-50
2021/07/29 01:37:02;;;;;;;0.10;0.10;;;22.20;73.60;;;;;;4209446;28;20556;-49
2021/07/29 01:39:24;;;;;;;0.43;0.43;;;22.20;73.50;;;;;;4209570;28;20040;-47
2021/07/29 01:41:47;;;;;;;0.17;0.08;;;22.20;73.50;;;;;;4199884;28;20055;-53
2021/07/29 01:44:09;;;;;;;0.00;0.00;;;22.20;73.50;;;;;;4205100;28;20520;-52
2021/07/29 01:46:31;;;;;;;0.00;0.00;;;22.20;73.50;;;;;;4209492;28;20067;-53
2021/07/29 01:48:53;;;;;;;0.08;0.08;;;22.20;73.50;;;;;;4209910;28;20051;-51
2021/07/29 01:51:15;;;;;;;1.00;0.25;;;22.20;73.60;;;;;;4209412;28;20067;-48
2021/07/29 01:53:38;;;;;;;0.00;0.00;;;22.20;73.70;;;;;;4209415;28;20512;-48
2021/07/29 01:56:00;;;;;;;0.10;0.10;;;22.20;73.70;;;;;;4209394;28;20106;-48
2021/07/29 01:58:22;;;;;;;0.00;0.00;;;22.20;73.80;;;;;;4209076;28;20155;-48
2021/07/29 02:00:48;;;;;;;0.00;0.00;;;22.20;73.90;;;;;;4209358;28;20465;-49
2021/07/29 02:03:10;;;;;;;0.00;0.00;;;22.20;73.90;;;;;;4192548;28;20153;-50
2021/07/29 02:05:32;;;;;;;0.00;0.00;;;22.20;73.90;;;;;;4192643;28;20048;-49
2021/07/29 02:07:54;;;;;;;0.00;0.00;;;22.20;74.00;;;;;;4202456;28;20119;-47
2021/07/29 02:10:17;;;;;;;0.10;0.10;;;22.20;73.90;;;;;;4209036;28;20384;-51
2021/07/29 02:12:40;;;;;;;0.10;0.10;;;22.20;73.90;;;;;;4209038;28;20069;-47
2021/07/29 02:15:02;;;;;;;0.20;0.20;;;22.10;73.80;;;;;;4192312;28;20190;-48
2021/07/29 02:17:24;;;;;;;0.00;0.00;;;22.10;73.80;;;;;;4192357;28;20491;-48
2021/07/29 02:19:46;;;;;;;0.00;0.00;;;22.10;73.80;;;;;;4192466;28;20507;-47
2021/07/29 02:22:08;;;;;;;0.00;0.00;;;22.20;73.80;;;;;;4203733;28;20075;-47
2021/07/29 02:24:31;;;;;;;0.68;0.65;;;22.10;73.70;;;;;;4209210;28;20524;-50
2021/07/29 02:26:54;;;;;;;0.10;0.10;;;22.10;73.70;;;;;;4208500;28;20055;-50
2021/07/29 02:29:17;;;;;;;0.00;0.00;;;22.10;73.60;;;;;;4208833;28;20109;-47
2021/07/29 02:31:39;;;;;;;0.10;0.10;;;22.10;73.60;;;;;;4209389;28;20044;-49
2021/07/29 02:34:01;;;;;;;0.28;0.28;;;22.10;73.60;;;;;;4207602;28;20560;-48
2021/07/29 02:36:23;;;;;;;0.00;0.00;;;22.00;73.40;;;;;;4206934;28;20632;-47
2021/07/29 02:38:45;;;;;;;0.00;0.00;;;22.00;73.40;;;;;;4207053;27;20527;-47
2021/07/29 02:41:07;;;;;;;0.03;0.03;;;22.00;73.40;;;;;;4208657;27;20075;-47
2021/07/29 02:43:30;;;;;;;0.00;0.00;;;22.00;73.50;;;;;;4207850;27;20109;-49
2021/07/29 02:45:53;;;;;;;0.00;0.00;;;22.00;73.50;;;;;;4208516;28;20245;-49
2021/07/29 02:48:15;;;;;;;0.10;0.10;;;22.00;73.50;;;;;;4208869;28;20056;-47
2021/07/29 02:50:37;;;;;;;0.00;0.00;;;22.00;73.50;;;;;;4208777;28;20051;-51
2021/07/29 02:52:59;;;;;;;0.35;0.35;;;22.00;73.50;;;;;;4191715;28;20085;-48
2021/07/29 02:55:21;;;;;;;0.00;0.00;;;22.00;73.40;;;;;;4196102;28;20066;-51
2021/07/29 02:57:43;;;;;;;0.08;0.08;;;21.90;73.30;;;;;;4208626;28;20044;-49
2021/07/29 03:00:08;;;;;;;0.00;0.00;;;21.90;73.20;;;;;;4208424;28;20554;-50
2021/07/29 03:02:30;;;;;;;0.00;0.00;;;21.90;73.20;;;;;;4192872;28;20044;-51
2021/07/29 03:04:52;;;;;;;0.13;0.13;;;21.90;73.10;;;;;;4191458;28;20054;-49
2021/07/29 03:07:14;;;;;;;0.00;0.00;;;21.90;73.10;;;;;;4203911;28;20055;-53
2021/07/29 03:09:36;;;;;;;0.10;0.10;;;21.90;73.10;;;;;;4208286;28;20085;-50
2021/07/29 03:11:59;;;;;;;0.00;0.00;;;21.90;73.10;;;;;;4208272;28;20047;-48
2021/07/29 03:14:21;;;;;;;0.00;0.00;;;21.90;73.10;;;;;;4208366;28;20052;-47
2021/07/29 03:16:44;;;;;;;0.00;0.00;;;21.80;72.90;;;;;;4191752;28;20414;-45
2021/07/29 03:19:07;;;;;;;0.00;0.00;;;21.80;72.80;;;;;;4192734;28;20056;-48
2021/07/29 03:21:29;;;;;;;0.00;0.00;;;21.80;72.70;;;;;;4191126;28;20096;-51
2021/07/29 03:23:51;;;;;;;0.00;0.00;;;21.80;72.70;;;;;;4191395;28;20466;-49
2021/07/29 03:26:13;;;;;;;0.00;0.00;;;21.80;72.70;;;;;;4174818;28;20049;-47
2021/07/29 03:28:35;;;;;;;0.10;0.10;;;21.80;72.60;;;;;;4191523;28;20495;-46
2021/07/29 03:30:57;;;;;;;0.10;0.10;;;21.80;72.60;;;;;;4191408;28;20585;-47
2021/07/29 03:33:21;;;;;;;0.00;0.00;;;21.80;72.60;;;;;;4200819;28;20055;-49
2021/07/29 03:35:43;;;;;;;0.00;0.00;;;21.80;72.50;;;;;;4207588;28;20062;-50
2021/07/29 03:38:06;;;;;;;0.00;0.00;;;21.80;72.40;;;;;;4207283;28;20048;-49
2021/07/29 03:40:28;;;;;;;0.00;0.00;;;21.70;72.50;;;;;;4207846;28;20055;-49
2021/07/29 03:42:50;;;;;;;0.00;0.00;;;21.70;72.40;;;;;;4207829;28;20133;-51
2021/07/29 03:45:13;;;;;;;0.00;0.00;;;21.70;72.30;;;;;;4207512;28;20501;-47
2021/07/29 03:47:36;;;;;;;0.00;0.00;;;21.70;72.30;;;;;;4207900;28;20048;-47
2021/07/29 03:49:59;;;;;;;0.00;0.00;;;21.70;72.30;;;;;;4208066;28;20559;-51
2021/07/29 03:52:21;;;;;;;0.00;0.00;;;21.70;73.20;;;;;;4206891;28;20067;-48
2021/07/29 03:54:49;;;;;;;0.00;0.00;;;21.70;72.30;;;;;;4207959;28;20482;-48
2021/07/29 03:57:11;;;;;;;0.00;0.00;;;21.70;72.30;;;;;;4207623;28;20426;-48
2021/07/29 03:59:33;;;;;;;0.00;0.00;;;21.70;72.30;;;;;;4207901;28;20064;-49
2021/07/29 04:01:55;;;;;;;0.00;0.00;;;21.70;72.30;;;;;;4207564;28;20051;-52
2021/07/29 04:04:17;;;;;;;0.00;0.00;;;21.70;72.40;;;;;;4206302;28;20105;-52
2021/07/29 04:06:41;;;;;;;0.00;0.00;;;21.70;72.40;;;;;;4190771;28;20058;-48
2021/07/29 04:09:03;;;;;;;0.00;0.00;;;21.70;72.40;;;;;;4191150;28;20051;-48
2021/07/29 04:11:28;;;;;;;0.00;0.00;;;21.60;72.20;;;;;;4191258;28;20056;-47
2021/07/29 04:13:50;;;;;;;0.00;0.00;;;21.70;72.30;;;;;;4197166;28;20529;-48
2021/07/29 04:16:12;;;;;;;0.00;0.00;;;21.70;72.30;;;;;;4207833;28;20123;-49
2021/07/29 04:18:35;;;;;;;0.00;0.00;;;21.60;72.20;;;;;;4207526;28;20067;-49
2021/07/29 04:20:57;;;;;;;0.20;0.20;;;21.60;72.20;;;;;;4207149;28;20552;-50
2021/07/29 04:23:20;;;;;;;0.00;0.00;;;21.60;72.20;;;;;;4207256;28;20040;-50
2021/07/29 04:25:43;;;;;;;0.00;0.00;;;21.60;72.20;;;;;;4207521;28;20456;-49
2021/07/29 04:28:05;;;;;;;0.10;0.10;;;21.60;72.20;;;;;;4207498;28;20078;-48
2021/07/29 04:30:27;;;;;;;0.00;0.00;;;21.60;72.20;;;;;;4207410;28;20056;-47
2021/07/29 04:32:49;;;;;;;0.00;0.00;;;21.60;72.10;;;;;;4189301;28;20045;-47
2021/07/29 04:35:12;;;;;;;0.00;0.00;;;21.60;72.10;;;;;;4195710;28;20044;-49
2021/07/29 04:37:34;;;;;;;0.00;0.00;;;21.60;72.00;;;;;;4198694;28;20058;-47
2021/07/29 04:39:57;;;;;;;0.00;0.00;;;21.60;72.00;;;;;;4207681;28;20048;-47
2021/07/29 04:42:19;;;;;;;0.00;0.00;;;21.60;72.90;;;;;;4189501;28;20380;-49
2021/07/29 04:44:41;;;;;;;0.00;0.00;;;21.60;72.00;;;;;;4203835;28;20072;-48
2021/07/29 04:47:04;;;;;;;0.00;0.00;;;21.60;72.00;;;;;;4207395;28;20048;-50
2021/07/29 04:49:26;;;;;;;0.00;0.00;;;21.60;72.00;;;;;;4207412;28;20055;-50
2021/07/29 04:51:48;;;;;;;0.00;0.00;;;21.60;72.00;;;;;;4207176;28;20074;-48
2021/07/29 04:54:10;;;;;;;0.00;0.00;;;21.60;71.90;;;;;;4207533;28;20059;-50
2021/07/29 04:56:34;;;;;;;0.00;0.00;;;21.60;71.90;;;;;;4207944;28;20413;-50
2021/07/29 04:58:56;;;;;;;5.03;2.10;;;21.60;71.80;;;;;;4210198;28;20520;-49
2021/07/29 05:01:18;;;;;;;0.00;0.00;;;21.70;71.80;;;;;;4209900;28;20044;-47
2021/07/29 05:03:40;;;;;;;0.00;0.00;;;21.60;71.70;;;;;;4210457;28;20058;-47
2021/07/29 05:06:02;;;;;;;0.00;0.00;;;21.70;71.70;;;;;;4210157;28;20052;-50
2021/07/29 05:08:24;;;;;;;0.15;0.15;;;21.70;71.70;;;;;;4209913;28;20052;-46
2021/07/29 05:10:46;;;;;;;0.00;0.00;;;21.70;71.50;;;;;;4203920;28;20048;-47
2021/07/29 05:13:09;;;;;;;0.10;0.10;;;21.70;71.60;;;;;;4192882;28;20486;-47
2021/07/29 05:15:31;;;;;;;0.10;0.10;;;21.60;71.70;;;;;;4193104;28;20380;-50
2021/07/29 05:17:55;;;;;;;0.00;0.00;;;21.60;71.70;;;;;;4209107;28;20452;-49
2021/07/29 05:20:17;;;;;;;0.00;0.00;;;21.60;71.80;;;;;;4204087;28;20051;-48
2021/07/29 05:22:39;;;;;;;0.05;0.05;;;21.60;71.80;;;;;;4193312;28;20083;-49
2021/07/29 05:25:01;;;;;;;0.10;0.10;;;21.60;71.80;;;;;;4193129;28;20174;-49
2021/07/29 05:27:23;;;;;;;0.00;0.00;;;21.60;71.80;;;;;;4193195;28;20052;-47
2021/07/29 05:29:47;;;;;;;0.00;0.00;;;21.60;72.50;;;;;;4192802;28;20083;-48
2021/07/29 05:32:09;;;;;;;0.17;0.17;;;21.70;72.50;;;;;;4209883;28;20139;-46
2021/07/29 05:34:32;;;;;;;0.00;0.00;;;21.70;72.10;;;;;;4208870;28;20054;-47
2021/07/29 05:36:54;;;;;;;0.00;0.00;;;21.70;71.80;;;;;;4209377;28;20050;-48
2021/07/29 05:39:17;;;;;;;0.22;0.22;;;21.70;71.60;;;;;;4209544;28;20414;-49
2021/07/29 05:41:39;;;;;;;0.00;0.00;;;21.70;71.50;;;;;;4209888;28;20157;-46
2021/07/29 05:44:01;;;;;;;0.00;0.00;;;21.70;71.40;;;;;;4202479;28;20400;-47
2021/07/29 05:46:24;;;;;;;0.32;0.32;;;21.80;71.00;;;;;;4192849;28;20056;-49
2021/07/29 05:48:46;;;;;;;0.00;0.00;;;21.80;70.90;;;;;;4192868;28;20048;-46
2021/07/29 05:51:12;;;;;;;0.10;0.10;;;21.80;70.70;;;;;;4209447;28;20430;-48
2021/07/29 05:53:35;;;;;;;0.00;0.00;;;21.80;70.60;;;;;;4209410;28;20052;-47
2021/07/29 05:55:57;;;;;;;0.00;0.00;;;21.80;70.50;;;;;;4209791;28;20127;-50
2021/07/29 05:58:19;;;;;;;0.00;0.00;;;21.80;70.30;;;;;;4209539;28;20048;-47
2021/07/29 06:00:41;;;;;;;2.50;0.47;;;21.80;70.20;;;;;;4204229;28;20060;-52
2021/07/29 06:03:06;;;;;;;4.65;1.48;;;21.80;70.20;;;;;;4209180;28;20546;-48
2021/07/29 06:05:28;;;;;;;0.10;0.10;;;21.80;70.00;;;;;;4209037;28;20494;-51
2021/07/29 06:07:51;;;;;;;0.00;0.00;;;21.80;70.00;;;;;;4208936;28;20392;-52
2021/07/29 06:10:13;;;;;;;0.00;0.00;;;21.80;69.90;;;;;;4209381;28;20048;-48
2021/07/29 06:12:34;;;;;;;0.00;0.00;;;21.80;70.70;;;;;;4199873;28;20048;-49
2021/07/29 06:14:57;;;;;;;0.00;0.00;;;21.80;69.60;;;;;;4203068;28;20398;-48
2021/07/29 06:17:22;;;;;;;0.00;0.00;;;21.80;69.40;;;;;;4197699;28;20043;-48
2021/07/29 06:19:45;;;;;;;0.00;0.00;;;21.80;69.30;;;;;;4208747;28;20048;-50
2021/07/29 06:22:07;;;;;;;0.00;0.00;;;21.80;69.20;;;;;;4205929;28;20051;-53
2021/07/29 06:24:29;;;;;;;0.00;0.00;;;21.80;69.20;;;;;;4208764;28;20135;-48
2021/07/29 06:26:59;;;;;;;0.13;0.13;;;21.80;69.00;;;;;;4208763;28;20127;-50
2021/07/29 06:29:21;;;;;;;1.20;1.10;;;21.80;69.10;;;;;;4208996;28;20070;-48
2021/07/29 06:31:43;;;;;;;0.00;0.00;;;21.80;69.10;;;;;;4207233;28;20048;-47
2021/07/29 06:34:05;;;;;;;0.00;0.00;;;21.80;69.10;;;;;;4208959;28;20044;-50
2021/07/29 06:36:28;;;;;;;0.00;0.00;;;21.80;69.00;;;;;;4208378;28;20052;-48
2021/07/29 06:38:53;;;;;;;0.00;0.00;;;21.80;69.10;;;;;;4207627;28;20047;-49
2021/07/29 06:41:15;;;;;;;0.00;0.00;;;21.80;69.00;;;;;;4208210;28;20516;-50
2021/07/29 06:43:37;;;;;;;0.38;0.38;;;21.80;69.10;;;;;;4191536;28;20051;-51
2021/07/29 06:46:03;;;;;;;0.00;0.00;;;21.70;68.90;;;;;;4191838;28;20465;-53
2021/07/29 06:48:25;;;;;;;0.00;0.00;;;21.80;69.00;;;;;;4180843;28;20056;-50
2021/07/29 06:50:47;;;;;;;0.00;0.00;;;21.80;69.00;;;;;;4208294;28;20548;-49
2021/07/29 06:53:11;;;;;;;0.10;0.10;;;21.80;68.80;;;;;;4208607;28;20057;-51
2021/07/29 06:55:33;;;;;;;0.10;0.10;;;21.90;68.70;;;;;;4207956;28;20056;-47
2021/07/29 06:57:56;;;;;;;0.00;0.00;;;21.90;68.40;;;;;;4208322;28;20075;-51
2021/07/29 07:00:20;;;;;;;1.25;0.73;;;22.00;68.10;;;;;;4175273;28;20146;-48
2021/07/29 07:02:42;;;;;;;0.00;0.00;;;22.00;68.00;;;;;;4175623;28;20130;-49
2021/07/29 07:05:05;;;;;;;0.00;0.00;;;22.10;68.00;;;;;;4203518;28;20071;-50
2021/07/29 07:07:27;;;;;;;0.00;0.00;;;22.10;67.80;;;;;;4207664;28;20095;-50
2021/07/29 07:09:51;;;;;;;1.08;0.98;;;22.20;67.50;;;;;;4191785;28;20136;-47
2021/07/29 07:12:13;;;;;;;0.32;0.32;;;22.20;67.10;;;;;;4191469;28;20076;-50
2021/07/29 07:14:35;;;;;;;0.00;0.00;;;22.20;66.80;;;;;;4191412;28;20048;-51
2021/07/29 07:16:57;;;;;;;0.00;0.00;;;22.20;66.80;;;;;;4191519;28;20502;-50
2021/07/29 07:19:20;;;;;;;3.00;1.45;;;22.20;66.80;;;;;;4206937;28;20490;-52
2021/07/29 07:21:42;;;;;;;0.00;0.00;;;22.20;66.70;;;;;;4207467;28;20047;-50
2021/07/29 07:24:04;;;;;;;0.00;0.00;;;22.20;66.60;;;;;;4207985;28;20043;-48
2021/07/29 07:26:28;;;;;;;0.10;0.10;;;22.20;66.50;;;;;;4208513;28;20442;-48
2021/07/29 07:28:51;;;;;;;0.55;0.55;;;22.30;66.40;;;;;;4204904;28;20101;-51
2021/07/29 07:31:14;;;;;;;0.00;0.00;;;22.30;66.20;;;;;;4208195;28;20039;-48
2021/07/29 07:33:37;;;;;;;0.10;0.10;;;22.30;66.00;;;;;;4208038;28;20044;-49
2021/07/29 07:35:59;;;;;;;0.08;0.08;;;22.40;66.00;;;;;;4203175;28;20052;-49
2021/07/29 07:38:22;;;;;;;0.00;0.00;;;22.30;65.80;;;;;;4207857;28;20051;-47
2021/07/29 07:40:44;;;;;;;0.17;0.17;;;22.30;65.70;;;;;;4207187;28;20113;-52
2021/07/29 07:43:08;;;;;;;0.28;0.28;;;22.30;65.90;;;;;;4207950;28;20104;-52
2021/07/29 07:45:31;;;;;;;0.00;0.00;;;22.30;65.90;;;;;;4207495;28;20055;-48
2021/07/29 07:47:53;;;;;;;0.32;0.32;;;22.40;66.00;;;;;;4207163;28;20048;-48
2021/07/29 07:50:15;;;;;;;0.00;0.00;;;22.40;66.00;;;;;;4207631;28;20680;-49
2021/07/29 07:52:37;;;;;;;0.00;0.00;;;22.30;65.90;;;;;;4207870;28;20586;-48
2021/07/29 07:55:00;;;;;;;0.05;0.05;;;22.30;66.00;;;;;;4208050;28;20043;-49
2021/07/29 07:57:22;;;;;;;0.38;0.30;;;22.30;66.10;;;;;;4206082;28;20048;-48
2021/07/29 07:59:46;;;;;;;1.77;1.08;;;22.30;65.90;;;;;;4207971;28;20044;-49
2021/07/29 08:02:08;;;;;;;0.32;0.32;;;22.30;66.00;;;;;;4207965;28;20045;-50
2021/07/29 08:04:31;;;;;;;0.00;0.00;;;22.20;66.10;;;;;;4206137;28;20051;-51
2021/07/29 08:06:53;;;;;;;0.38;0.38;;;22.20;66.10;;;;;;4190861;28;20053;-49
2021/07/29 08:09:15;;;;;;;0.00;0.00;;;22.20;66.00;;;;;;4203224;28;20127;-49
2021/07/29 08:11:38;;;;;;;3.35;0.95;;;22.20;66.40;;;;;;4207515;28;20044;-53
2021/07/29 08:14:00;;;;;;;0.03;0.03;;;22.20;66.50;;;;;;4207295;28;21540;-49
2021/07/29 08:16:23;;;;;;;0.25;0.25;;;22.20;66.20;;;;;;4207452;28;20055;-53
2021/07/29 08:18:46;;;;;;;0.00;0.00;;;22.20;65.80;;;;;;4207285;28;20044;-49
2021/07/29 08:21:12;;;;;;;0.00;0.00;;;22.20;65.70;;;;;;4205098;28;20097;-54
2021/07/29 08:23:34;;;;;;;0.20;0.20;;;22.30;66.00;;;;;;4206809;28;20040;-49
2021/07/29 08:25:56;;;;;;;0.00;0.00;;;22.30;66.20;;;;;;4207624;28;20459;-50
2021/07/29 08:28:18;;;;;;;0.13;0.13;;;22.20;66.10;;;;;;4207490;28;20055;-49
2021/07/29 08:30:40;;;;;;;0.00;0.00;;;22.20;67.30;;;;;;4207245;28;20135;-51
2021/07/29 08:33:11;;;;;;;0.30;0.30;;;22.20;66.50;;;;;;4177532;28;20055;-51
2021/07/29 08:35:37;;;;;;;0.22;0.22;;;22.20;66.60;;;;;;4189905;28;20814;-53
2021/07/29 08:37:59;;;;;;;0.00;0.00;;;22.30;66.80;;;;;;4194582;28;20415;-50
2021/07/29 08:40:21;;;;;;;0.05;0.05;;;22.30;66.60;;;;;;4210618;28;20044;-51
2021/07/29 08:42:43;;;;;;;0.00;0.00;;;22.30;66.30;;;;;;4209939;28;20056;-51
2021/07/29 08:45:07;;;;;;;1.88;1.08;;;22.20;66.10;;;;;;4208884;28;20070;-47
2021/07/29 08:47:33;;;;;;;0.73;0.30;;;22.20;65.80;;;;;;4210729;28;20101;-48
2021/07/29 08:49:57;;;;;;;0.05;0.05;;;22.20;65.40;;;;;;4210431;28;20086;-49
2021/07/29 08:52:20;;;;;;;0.00;0.00;;;22.10;64.90;;;;;;4210250;28;20150;-48
2021/07/29 08:54:42;;;;;;;0.13;0.13;;;22.10;64.80;;;;;;4210212;28;20078;-51
2021/07/29 08:57:05;;;;;;;0.75;0.65;;;22.10;64.80;;;;;;4193671;28;20059;-52
2021/07/29 08:59:27;;;;;;;0.00;0.00;;;22.00;64.40;;;;;;4193428;28;20048;-51
2021/07/29 09:01:52;;;;;;;0.00;0.00;;;22.00;63.90;;;;;;4193584;28;20051;-51
2021/07/29 09:04:16;;;;;;;1.45;0.65;;;21.90;63.70;;;;;;4193512;28;20044;-52
2021/07/29 09:06:53;;;;;;;0.63;0.63;;;22.00;63.60;;;;;;4202689;28;20068;-51
2021/07/29 09:09:40;;;;;;;0.00;0.00;;;21.90;63.30;;;;;;4209982;28;20079;-49
2021/07/29 09:12:14;;;;;;;0.10;0.10;;;21.90;63.20;;;;;;4209539;28;20177;-46
2021/07/29 09:14:36;;;;;;;0.10;0.10;;;21.80;63.40;;;;;;4201333;28;20070;-49
2021/07/29 09:17:01;;;;;;;0.00;0.00;;;21.80;63.60;;;;;;4208712;28;20048;-47
2021/07/29 09:19:31;;;;;;;0.47;0.47;;;21.90;63.60;;;;;;4209871;28;20075;-49
2021/07/29 09:22:09;;;;;;;1.33;0.93;;;21.90;63.50;;;;;;4209676;28;20051;-47
2021/07/29 09:24:31;;;;;;;0.20;0.20;;;21.90;63.40;;;;;;4192718;28;20355;-48
2021/07/29 09:26:58;;;;;;;0.00;0.00;;;22.00;63.50;;;;;;4202497;28;20048;-50
2021/07/29 09:29:22;;;;;;;0.00;0.00;;;21.90;63.50;;;;;;4209758;28;20432;-51
2021/07/29 09:31:44;;;;;;;0.00;0.00;;;22.00;63.70;;;;;;4208799;28;20044;-53
2021/07/29 09:34:06;;;;;;;0.00;0.00;;;21.90;63.50;;;;;;4204003;28;20124;-50
2021/07/29 09:36:31;;;;;;;0.00;0.00;;;21.90;63.40;;;;;;4192477;28;20071;-47
2021/07/29 09:39:19;;;;;;;0.05;0.05;;;21.90;63.50;;;;;;4203868;28;20501;-51
2021/07/29 09:41:41;;;;;;;0.20;0.20;;;21.80;63.50;;;;;;4200636;28;20406;-49
2021/07/29 09:44:04;;;;;;;0.00;0.00;;;21.80;63.50;;;;;;4209389;28;20048;-48
2021/07/29 09:46:26;;;;;;;0.00;0.00;;;21.80;63.60;;;;;;4209339;28;20074;-49
2021/07/29 09:48:49;;;;;;;0.00;0.00;;;21.80;63.80;;;;;;4209512;28;20094;-48
2021/07/29 09:51:12;;;;;;;0.00;0.00;;;21.80;63.90;;;;;;4203894;28;20048;-50
2021/07/29 09:53:35;;;;;;;0.00;0.00;;;21.70;64.00;;;;;;4209739;28;20048;-49
2021/07/29 09:55:59;;;;;;;0.00;0.00;;;21.70;64.00;;;;;;4209449;28;20050;-50
2021/07/29 09:58:21;;;;;;;0.00;0.00;;;21.70;64.00;;;;;;4209166;28;20144;-47
2021/07/29 10:00:43;;;;;;;0.00;0.00;;;21.70;64.10;;;;;;4209299;28;20452;-50
2021/07/29 10:03:07;;;;;;;11.27;1.75;;;21.70;64.00;;;;;;4209455;28;20055;-54
2021/07/29 10:05:44;;;;;;;0.00;0.00;;;21.70;63.80;;;;;;4208885;28;20051;-47
2021/07/29 10:08:11;;;;;;;0.00;0.00;;;21.70;63.70;;;;;;4208837;28;20544;-52
2021/07/29 10:10:34;;;;;;;0.00;0.00;;;21.70;63.50;;;;;;4208782;28;20135;-52
2021/07/29 10:12:58;;;;;;;0.00;0.00;;;21.70;63.30;;;;;;4209159;28;20051;-48
2021/07/29 10:15:40;;;;;;;0.10;0.10;;;21.80;63.40;;;;;;4209348;28;20070;-50
2021/07/29 10:18:03;;;;;;;0.00;0.00;;;21.80;63.40;;;;;;4208482;28;20069;-48
2021/07/29 10:20:26;;;;;;;0.00;0.00;;;21.80;63.30;;;;;;4209113;28;20068;-53
2021/07/29 10:22:50;;;;;;;0.00;0.00;;;21.90;63.30;;;;;;4209298;28;20573;-49
2021/07/29 10:25:13;;;;;;;0.00;0.00;;;21.90;63.20;;;;;;4206846;28;20047;-49
2021/07/29 10:27:35;;;;;;;0.00;0.00;;;22.00;63.40;;;;;;4208416;28;20044;-49
2021/07/29 10:30:30;;;;;;;0.00;0.00;;;22.00;63.30;;;;;;4208769;28;20052;-53
2021/07/29 10:32:54;;;;;;;0.05;0.05;;;22.00;63.20;;;;;;4207937;28;20048;-51
2021/07/29 10:35:39;;;;;;;0.28;0.28;;;22.00;63.20;;;;;;4203660;28;20060;-48
2021/07/29 10:38:01;;;;;;;0.00;0.00;;;22.00;63.00;;;;;;4208178;28;20054;-47
2021/07/29 10:40:33;;;;;;;0.00;0.00;;;22.00;62.80;;;;;;4208234;28;20142;-51
2021/07/29 10:42:55;;;;;;;0.00;0.00;;;22.00;62.50;;;;;;4208261;28;20174;-49
2021/07/29 10:45:48;;;;;;;0.00;0.00;;;22.00;62.10;;;;;;4208208;28;20093;-51
2021/07/29 10:48:47;;;;;;;0.00;0.00;;;22.00;61.90;;;;;;4202685;28;20048;-53
2021/07/29 10:51:12;;;;;;;0.25;0.25;;;22.00;61.70;;;;;;4208382;28;20051;-52
2021/07/29 10:53:34;;;;;;;0.00;0.00;;;22.00;61.20;;;;;;4205895;28;20055;-52
2021/07/29 10:55:57;;;;;;;0.00;0.00;;;22.00;60.80;;;;;;4197863;28;20055;-53
2021/07/29 10:58:19;;;;;;;0.15;0.15;;;22.00;60.80;;;;;;4208129;28;20048;-50
2021/07/29 11:00:52;;;;;;;0.10;0.10;;;22.00;60.80;;;;;;4208299;28;20052;-52
2021/07/29 11:03:23;;;;;;;0.00;0.00;;;22.00;60.70;;;;;;4207533;28;20051;-52
2021/07/29 11:05:52;;;;;;;0.00;0.00;;;22.00;60.80;;;;;;4208321;28;20430;-52
2021/07/29 11:08:14;;;;;;;0.00;0.00;;;22.00;61.00;;;;;;4211627;28;20402;-50
2021/07/29 11:10:37;;;;;;;0.00;0.00;;;22.00;60.90;;;;;;4208645;28;20159;-53
2021/07/29 11:12:59;;;;;;;0.00;0.00;;;22.00;60.90;;;;;;4206733;28;20048;-55
2021/07/29 11:15:21;;;;;;;0.08;0.08;;;22.00;60.80;;;;;;4218850;28;20441;-52
2021/07/29 11:17:43;;;;;;;0.00;0.00;;;22.00;60.90;;;;;;4214228;28;20043;-53
2021/07/29 11:20:10;;;;;;;0.00;0.00;;;21.90;60.90;;;;;;4191491;28;20417;-53
2021/07/29 11:22:43;;;;;;;0.00;0.00;;;21.90;61.60;;;;;;4206446;28;20070;-50
2021/07/29 11:25:09;;;;;;;0.00;0.00;;;21.90;62.50;;;;;;4207703;28;20116;-52
2021/07/29 11:27:32;;;;;;;0.00;0.00;;;21.90;63.20;;;;;;4208039;28;20058;-54
2021/07/29 11:29:54;;;;;;;0.03;0.03;;;21.80;63.40;;;;;;4208045;28;20448;-52
2021/07/29 11:32:16;;;;;;;0.03;0.03;;;21.80;63.60;;;;;;4208189;28;20068;-54
2021/07/29 11:34:38;;;;;;;0.00;0.00;;;21.80;63.90;;;;;;4207519;28;20417;-50
2021/07/29 11:37:03;;;;;;;0.00;0.00;;;21.80;64.20;;;;;;4207553;28;20093;-48
2021/07/29 11:39:26;;;;;;;0.00;0.00;;;21.80;64.30;;;;;;4207797;28;20052;-50
2021/07/29 11:41:52;;;;;;;0.00;0.00;;;21.80;64.10;;;;;;4193701;28;20052;-51
2021/07/29 11:44:14;;;;;;;0.00;0.00;;;21.80;64.00;;;;;;4206831;28;20072;-49
2021/07/29 11:46:36;;;;;;;0.00;0.00;;;21.80;63.90;;;;;;4191634;28;20182;-49
2021/07/29 11:49:02;;;;;;;0.00;0.00;;;21.70;63.70;;;;;;4194655;28;20052;-50
2021/07/29 11:51:24;;;;;;;0.00;0.00;;;21.80;63.70;;;;;;4207537;28;20052;-50
2021/07/29 11:53:48;;;;;;;0.00;0.00;;;21.70;63.50;;;;;;4207583;28;20090;-52
2021/07/29 11:56:13;;;;;;;0.00;0.00;;;21.80;64.50;;;;;;4207899;28;20536;-48
2021/07/29 11:58:35;;;;;;;0.00;0.00;;;21.80;63.40;;;;;;4207675;28;20044;-50
2021/07/29 12:00:57;;;;;;;0.25;0.15;;;21.80;63.10;;;;;;4207639;28;20637;-48
2021/07/29 12:03:28;;;;;;;0.00;0.00;;;21.90;63.10;;;;;;4207316;28;20074;-56
2021/07/29 12:05:51;;;;;;;1.10;1.02;;;21.90;63.00;;;;;;4208059;28;20054;-49
2021/07/29 12:08:13;;;;;;;0.65;0.65;;;21.90;62.70;;;;;;4211493;28;20573;-51
2021/07/29 12:10:37;;;;;;;0.00;0.00;;;21.90;62.30;;;;;;4211381;28;20093;-50
2021/07/29 12:13:02;;;;;;;0.00;0.00;;;22.00;62.10;;;;;;4211558;28;20052;-47
2021/07/29 12:15:25;;;;;;;0.10;0.10;;;22.00;61.90;;;;;;4210914;28;20055;-55
2021/07/29 12:17:47;;;;;;;0.32;0.32;;;22.00;62.00;;;;;;4209597;28;20158;-53
2021/07/29 12:20:12;;;;;;;0.10;0.10;;;22.00;61.40;;;;;;4211153;28;20048;-51
2021/07/29 12:22:37;;;;;;;0.00;0.00;;;22.10;61.50;;;;;;4211005;28;20113;-54
2021/07/29 12:25:00;;;;;;;0.10;0.10;;;22.00;61.40;;;;;;4210972;28;20060;-50
2021/07/29 12:27:23;;;;;;;0.00;0.00;;;22.10;61.20;;;;;;4210830;28;20054;-51
2021/07/29 12:29:47;;;;;;;0.10;0.10;;;22.10;60.90;;;;;;4210901;28;20048;-51
2021/07/29 12:32:19;;;;;;;0.00;0.00;;;22.10;60.10;;;;;;4210821;28;20091;-49